createdAt,value
2023-03-06T00:00:37.047Z,100.00
2023-03-06T00:03:07.702Z,100.00
2023-03-06T00:05:37.738Z,100.00
2023-03-06T00:08:07.843Z,100.00
2023-03-06T00:10:37.493Z,100.00
2023-03-06T00:13:09.713Z,100.00
2023-03-06T00:15:39.175Z,100.00
2023-03-06T00:18:10.998Z,100.00
2023-03-06T00:20:41.538Z,100.00
2023-03-06T00:23:11.054Z,100.00
2023-03-06T00:25:43.841Z,100.00
2023-03-06T00:28:16.123Z,100.00
2023-03-06T00:30:46.255Z,100.00
2023-03-06T00:33:17.971Z,100.00
2023-03-06T00:35:46.745Z,100.00
2023-03-06T00:38:16.062Z,100.00
2023-03-06T00:40:45.112Z,100.00
2023-03-06T00:43:14.613Z,100.00
2023-03-06T00:45:43.767Z,100.00
2023-03-06T00:48:13.542Z,100.00
2023-03-06T00:50:43.664Z,100.00
2023-03-06T00:53:13.486Z,100.00
2023-03-06T00:55:45.940Z,100.00
2023-03-06T00:58:15.059Z,100.00
2023-03-06T01:00:44.278Z,100.00
2023-03-06T01:03:13.648Z,100.00
2023-03-06T01:05:47.006Z,100.00
2023-03-06T01:08:22.648Z,100.00
2023-03-06T01:10:51.572Z,100.00
2023-03-06T01:13:20.996Z,100.00
2023-03-06T01:15:50.776Z,100.00
2023-03-06T01:18:19.462Z,100.00
2023-03-06T01:20:50.420Z,100.00
2023-03-06T01:23:25.790Z,100.00
2023-03-06T01:25:54.521Z,100.00
2023-03-06T01:28:24.880Z,100.00
2023-03-06T01:30:53.641Z,100.00
2023-03-06T01:33:22.335Z,100.00
2023-03-06T01:35:52.870Z,100.00
2023-03-06T01:38:21.236Z,100.00
2023-03-06T01:40:52.398Z,100.00
2023-03-06T01:43:31.006Z,100.00
2023-03-06T01:46:35.152Z,100.00
2023-03-06T01:49:08.692Z,100.00
2023-03-06T01:51:41.292Z,100.00
2023-03-06T01:54:14.263Z,100.00
2023-03-06T01:56:45.000Z,100.00
2023-03-06T01:59:14.915Z,100.00
2023-03-06T02:01:44.120Z,100.00
2023-03-06T02:04:13.452Z,100.00
2023-03-06T02:06:45.251Z,100.00
2023-03-06T02:09:14.719Z,100.00
2023-03-06T02:11:44.637Z,100.00
2023-03-06T02:14:14.397Z,100.00
2023-03-06T02:16:44.447Z,100.00
2023-03-06T02:19:23.737Z,100.00
2023-03-06T02:21:54.174Z,100.00
2023-03-06T02:24:32.494Z,100.00
2023-03-06T02:27:04.476Z,100.00
2023-03-06T02:29:33.455Z,100.00
2023-03-06T02:32:02.946Z,100.00
2023-03-06T02:34:52.700Z,100.00
2023-03-06T02:37:23.963Z,100.00
2023-03-06T02:40:02.089Z,100.00
2023-03-06T02:42:33.226Z,100.00
2023-03-06T02:45:05.671Z,100.00
2023-03-06T02:47:35.238Z,100.00
2023-03-06T02:50:04.995Z,100.00
2023-03-06T02:52:37.604Z,100.00
2023-03-06T02:55:07.483Z,100.00
2023-03-06T02:57:38.064Z,100.00
2023-03-06T03:00:08.761Z,100.00
2023-03-06T03:02:37.666Z,100.00
2023-03-06T03:05:09.012Z,100.00
2023-03-06T03:07:49.745Z,100.00
2023-03-06T03:10:18.963Z,100.00
2023-03-06T03:12:49.671Z,100.00
2023-03-06T03:15:19.073Z,100.00
2023-03-06T03:17:50.988Z,100.00
2023-03-06T03:20:23.411Z,100.00
2023-03-06T03:22:53.390Z,100.00
2023-03-06T03:25:24.148Z,100.00
2023-03-06T03:27:54.916Z,100.00
2023-03-06T03:30:24.669Z,100.00
2023-03-06T03:32:53.447Z,100.00
2023-03-06T03:35:23.959Z,100.00
2023-03-06T03:37:55.126Z,100.00
2023-03-06T03:40:24.785Z,100.00
2023-03-06T03:42:55.506Z,100.00
2023-03-06T03:45:24.589Z,100.00
2023-03-06T03:47:55.468Z,100.00
2023-03-06T03:50:26.884Z,100.00
2023-03-06T03:52:57.085Z,100.00
2023-03-06T03:55:26.837Z,100.00
2023-03-06T03:57:57.342Z,100.00
2023-03-06T04:00:30.126Z,100.00
2023-03-06T04:02:59.460Z,100.00
2023-03-06T04:05:28.831Z,100.00
2023-03-06T04:07:59.540Z,100.00
2023-03-06T04:10:28.204Z,100.00
2023-03-06T04:12:59.771Z,100.00
2023-03-06T04:15:28.391Z,100.00
2023-03-06T04:18:01.067Z,100.00
2023-03-06T04:20:31.689Z,100.00
2023-03-06T04:23:01.070Z,100.00
2023-03-06T04:25:29.627Z,100.00
2023-03-06T04:28:02.756Z,100.00
2023-03-06T04:30:31.839Z,100.00
2023-03-06T04:33:01.466Z,100.00
2023-03-06T04:35:31.117Z,100.00
2023-03-06T04:38:03.016Z,100.00
2023-03-06T04:40:34.047Z,100.00
2023-03-06T04:43:06.325Z,100.00
2023-03-06T04:45:35.782Z,100.00
2023-03-06T04:48:04.985Z,100.00
2023-03-06T04:50:38.238Z,100.00
2023-03-06T04:53:08.675Z,100.00
2023-03-06T04:55:39.382Z,100.00
2023-03-06T04:58:10.027Z,100.00
2023-03-06T05:00:38.956Z,100.00
2023-03-06T05:03:10.451Z,100.00
2023-03-06T05:05:40.869Z,100.00
2023-03-06T05:08:10.071Z,100.00
2023-03-06T05:10:39.391Z,100.00
2023-03-06T05:13:11.245Z,100.00
2023-03-06T05:15:42.302Z,100.00
2023-03-06T05:18:11.560Z,100.00
2023-03-06T05:20:40.666Z,100.00
2023-03-06T05:23:09.664Z,100.00
2023-03-06T05:25:41.107Z,100.00
2023-03-06T05:28:15.540Z,100.00
2023-03-06T05:30:46.309Z,100.00
2023-03-06T05:33:18.537Z,100.00
2023-03-06T05:35:49.816Z,100.00
2023-03-06T05:38:20.617Z,100.00
2023-03-06T05:40:50.762Z,100.00
2023-03-06T05:43:21.838Z,100.00
2023-03-06T05:45:53.358Z,100.00
2023-03-06T05:48:22.333Z,100.00
2023-03-06T05:50:58.902Z,100.00
2023-03-06T05:53:31.404Z,100.00
2023-03-06T05:56:01.228Z,100.00
2023-03-06T05:58:33.801Z,100.00
2023-03-06T06:01:10.545Z,100.00
2023-03-06T06:03:43.366Z,100.00
2023-03-06T06:06:14.787Z,100.00
2023-03-06T06:08:49.365Z,100.00
2023-03-06T06:11:28.287Z,100.00
2023-03-06T06:14:40.785Z,100.00
2023-03-06T06:17:12.748Z,100.00
2023-03-06T06:19:42.281Z,100.00
2023-03-06T06:22:13.887Z,100.00
2023-03-06T06:24:46.770Z,100.00
2023-03-06T06:27:15.414Z,100.00
2023-03-06T06:29:51.851Z,100.00
2023-03-06T06:32:23.585Z,100.00
2023-03-06T06:34:53.370Z,100.00
2023-03-06T06:37:22.350Z,100.00
2023-03-06T06:39:51.819Z,100.00
2023-03-06T06:45:21.461Z,100.00
2023-03-06T06:47:52.075Z,100.00
2023-03-06T06:50:21.172Z,100.00
2023-03-06T06:52:51.626Z,100.00
2023-03-06T06:55:20.589Z,100.00
2023-03-06T06:57:49.090Z,100.00
2023-03-06T07:00:21.343Z,100.00
2023-03-06T07:02:51.496Z,100.00
2023-03-06T07:05:22.209Z,100.00
2023-03-06T07:07:54.035Z,100.00
2023-03-06T07:10:23.063Z,100.00
2023-03-06T07:15:43.227Z,100.00
2023-03-06T07:18:12.201Z,100.00
2023-03-06T07:20:40.681Z,100.00
2023-03-06T07:23:12.676Z,100.00
2023-03-06T07:25:41.615Z,100.00
2023-03-06T07:28:10.420Z,100.00
2023-03-06T07:30:41.298Z,100.00
2023-03-06T07:33:16.453Z,100.00
2023-03-06T07:35:46.211Z,100.00
2023-03-06T07:38:15.503Z,100.00
2023-03-06T07:40:44.123Z,100.00
2023-03-06T07:43:19.106Z,100.00
2023-03-06T07:45:48.265Z,100.00
2023-03-06T07:48:18.263Z,100.00
2023-03-06T07:50:55.521Z,100.00
2023-03-06T07:53:24.838Z,100.00
2023-03-06T07:55:53.829Z,100.00
2023-03-06T07:58:22.638Z,100.00
2023-03-06T08:00:51.236Z,100.00
2023-03-06T08:03:21.648Z,100.00
2023-03-06T08:05:50.381Z,100.00
2023-03-06T08:08:18.897Z,100.00
2023-03-06T08:10:50.180Z,100.00
2023-03-06T08:13:18.783Z,100.00
2023-03-06T08:15:50.508Z,100.00
2023-03-06T08:18:21.017Z,100.00
2023-03-06T08:20:50.724Z,100.00
2023-03-06T08:23:19.615Z,100.00
2023-03-06T08:25:49.224Z,100.00
2023-03-06T08:28:17.762Z,100.00
2023-03-06T08:30:46.288Z,100.00
2023-03-06T08:33:14.990Z,100.00
2023-03-06T08:35:45.005Z,100.00
2023-03-06T08:38:13.829Z,100.00
2023-03-06T08:40:42.869Z,100.00
2023-03-06T08:43:14.188Z,100.00
2023-03-06T08:45:43.013Z,100.00
2023-03-06T08:48:11.588Z,100.00
2023-03-06T08:50:44.296Z,100.00
2023-03-06T08:53:13.292Z,100.00
2023-03-06T08:55:42.327Z,100.00
2023-03-06T08:58:11.068Z,100.00
2023-03-06T09:00:40.313Z,100.00
2023-03-06T09:03:11.754Z,100.00
2023-03-06T09:05:44.793Z,100.00
2023-03-06T09:08:13.637Z,100.00
2023-03-06T09:10:46.472Z,100.00
2023-03-06T09:13:15.339Z,100.00
2023-03-06T09:15:44.252Z,100.00
2023-03-06T09:18:12.852Z,100.00
2023-03-06T09:20:41.424Z,100.00
2023-03-06T09:23:12.268Z,100.00
2023-03-06T09:25:40.862Z,100.00
2023-03-06T09:28:11.892Z,100.00
2023-03-06T09:30:42.353Z,100.00
2023-03-06T09:33:11.193Z,100.00
2023-03-06T09:35:45.786Z,100.00
2023-03-06T09:38:16.140Z,100.00
2023-03-06T09:41:00.814Z,100.00
2023-03-06T09:43:35.488Z,100.00
2023-03-06T09:46:17.882Z,100.00
2023-03-06T09:49:01.593Z,100.00
2023-03-06T09:51:42.751Z,100.00
2023-03-06T09:54:16.169Z,100.00
2023-03-06T09:56:52.231Z,100.00
2023-03-06T09:59:23.972Z,100.00
2023-03-06T10:02:02.602Z,100.00
2023-03-06T10:04:39.459Z,100.00
2023-03-06T10:07:16.860Z,100.00
2023-03-06T10:09:53.865Z,100.00
2023-03-06T10:12:28.504Z,100.00
2023-03-06T10:15:18.164Z,100.00
2023-03-06T10:17:47.233Z,100.00
2023-03-06T10:20:22.679Z,100.00
2023-03-06T10:23:12.054Z,100.00
2023-03-06T10:25:51.802Z,100.00
2023-03-06T10:28:25.661Z,100.00
2023-03-06T10:31:02.002Z,100.00
2023-03-06T10:33:45.822Z,100.00
2023-03-06T10:36:19.937Z,100.00
2023-03-06T10:38:50.444Z,100.00
2023-03-06T10:41:27.577Z,100.00
2023-03-06T10:44:26.152Z,100.00
2023-03-06T10:46:56.876Z,100.00
2023-03-06T10:49:33.988Z,100.00
2023-03-06T10:52:06.845Z,100.00
2023-03-06T10:54:37.831Z,100.00
2023-03-06T10:57:27.173Z,100.00
2023-03-06T10:59:58.081Z,100.00
2023-03-06T11:02:31.841Z,100.00
2023-03-06T11:05:03.661Z,100.00
2023-03-06T11:07:34.196Z,100.00
2023-03-06T11:10:18.054Z,100.00
2023-03-06T11:12:59.844Z,98.89
2023-03-06T11:15:29.973Z,88.17
2023-03-06T11:18:03.795Z,91.98
2023-03-06T11:20:50.883Z,92.42
2023-03-06T11:23:30.383Z,91.42
2023-03-06T11:26:04.948Z,88.92
2023-03-06T11:28:41.621Z,91.29
2023-03-06T11:31:17.088Z,87.41
2023-03-06T11:33:52.705Z,87.90
2023-03-06T11:36:31.543Z,83.54
2023-03-06T11:39:00.456Z,85.83
2023-03-06T11:41:46.024Z,86.26
2023-03-06T11:44:25.870Z,85.96
2023-03-06T11:47:08.776Z,88.68
2023-03-06T11:49:45.614Z,94.52
2023-03-06T11:52:24.243Z,100.00
2023-03-06T11:54:57.586Z,100.00
2023-03-06T11:57:34.499Z,100.00
2023-03-06T12:00:30.845Z,100.00
2023-03-06T12:03:30.487Z,100.00
2023-03-06T12:06:07.377Z,100.00
2023-03-06T12:08:58.680Z,100.00
2023-03-06T12:11:36.904Z,100.00
2023-03-06T12:14:30.620Z,100.00
2023-03-06T12:17:17.578Z,100.00
2023-03-06T12:20:21.091Z,100.00
2023-03-06T12:22:57.839Z,100.00
2023-03-06T12:25:37.711Z,100.00
2023-03-06T12:28:32.282Z,100.00
2023-03-06T12:31:36.569Z,100.00
2023-03-06T12:34:25.472Z,100.00
2023-03-06T12:37:12.495Z,100.00
2023-03-06T12:39:58.045Z,100.00
2023-03-06T12:42:48.346Z,100.00
2023-03-06T12:45:33.557Z,100.00
2023-03-06T12:48:03.571Z,100.00
2023-03-06T12:50:37.319Z,100.00
2023-03-06T12:53:15.368Z,100.00
2023-03-06T12:55:48.043Z,100.00
2023-03-06T12:58:37.205Z,100.00
2023-03-06T13:01:15.062Z,100.00
2023-03-06T13:04:06.228Z,100.00
2023-03-06T13:07:03.143Z,100.00
2023-03-06T13:09:37.506Z,100.00
2023-03-06T13:12:26.863Z,100.00
2023-03-06T13:15:01.860Z,100.00
2023-03-06T13:17:37.163Z,100.00
2023-03-06T13:20:39.726Z,100.00
2023-03-06T13:23:51.855Z,100.00
2023-03-06T13:27:00.641Z,100.00
2023-03-06T13:30:52.633Z,100.00
2023-03-06T13:34:01.834Z,100.00
2023-03-06T13:36:32.774Z,100.00
2023-03-06T13:39:10.216Z,100.00
2023-03-06T13:42:02.751Z,100.00
2023-03-06T13:44:53.229Z,100.00
2023-03-06T13:48:09.733Z,100.00
2023-03-06T13:50:43.515Z,100.00
2023-03-06T13:53:54.997Z,100.00
2023-03-06T13:57:22.736Z,100.00
2023-03-06T14:00:22.223Z,100.00
2023-03-06T14:03:27.526Z,100.00
2023-03-06T14:05:56.235Z,100.00
2023-03-06T14:08:28.990Z,100.00
2023-03-06T14:11:04.961Z,100.00
2023-03-06T14:13:47.218Z,100.00
2023-03-06T14:16:22.608Z,100.00
2023-03-06T14:18:54.760Z,100.00
2023-03-06T14:21:31.557Z,100.00
2023-03-06T14:24:01.907Z,100.00
2023-03-06T14:26:33.963Z,100.00
2023-03-06T14:29:04.938Z,100.00
2023-03-06T14:31:37.652Z,100.00
2023-03-06T14:34:08.283Z,100.00
2023-03-06T14:36:44.678Z,100.00
2023-03-06T14:39:16.761Z,100.00
2023-03-06T14:41:45.659Z,100.00
2023-03-06T14:44:22.633Z,100.00
2023-03-06T14:46:53.070Z,100.00
2023-03-06T14:49:23.852Z,100.00
2023-03-06T14:51:54.959Z,100.00
2023-03-06T14:54:28.653Z,100.00
2023-03-06T14:57:03.322Z,100.00
2023-03-06T14:59:46.166Z,100.00
2023-03-06T15:02:21.960Z,100.00
2023-03-06T15:04:55.449Z,100.00
2023-03-06T15:07:27.935Z,100.00
2023-03-06T15:09:57.427Z,100.00
2023-03-06T15:12:46.517Z,100.00
2023-03-06T15:15:32.828Z,100.00
2023-03-06T15:18:01.616Z,100.00
2023-03-06T15:20:53.149Z,100.00
2023-03-06T15:23:26.557Z,100.00
2023-03-06T15:25:59.637Z,100.00
2023-03-06T15:28:35.361Z,100.00
2023-03-06T15:31:22.275Z,100.00
2023-03-06T15:34:26.223Z,100.00
2023-03-06T15:36:57.187Z,100.00
2023-03-06T15:39:38.844Z,100.00
2023-03-06T15:42:20.685Z,100.00
2023-03-06T15:44:53.226Z,100.00
2023-03-06T15:47:27.773Z,100.00
2023-03-06T15:49:56.980Z,100.00
2023-03-06T15:52:25.580Z,100.00
2023-03-06T15:54:54.310Z,100.00
2023-03-06T15:57:28.416Z,100.00
2023-03-06T15:59:58.795Z,100.00
2023-03-06T16:02:31.166Z,100.00
2023-03-06T16:05:06.914Z,100.00
2023-03-06T16:07:38.146Z,100.00
2023-03-06T16:10:08.018Z,100.00
2023-03-06T16:12:43.051Z,100.00
2023-03-06T16:15:24.766Z,100.00
2023-03-06T16:17:58.851Z,100.00
2023-03-06T16:20:29.436Z,100.00
2023-03-06T16:23:00.723Z,100.00
2023-03-06T16:25:31.077Z,100.00
2023-03-06T16:28:03.478Z,100.00
2023-03-06T16:30:38.538Z,100.00
2023-03-06T16:33:10.771Z,100.00
2023-03-06T16:35:41.841Z,100.00
2023-03-06T16:38:11.974Z,100.00
2023-03-06T16:40:42.638Z,100.00
2023-03-06T16:43:13.548Z,100.00
2023-03-06T16:45:43.745Z,100.00
2023-03-06T16:48:19.048Z,100.00
2023-03-06T16:50:47.819Z,100.00
2023-03-06T16:53:16.715Z,100.00
2023-03-06T16:55:47.058Z,100.00
2023-03-06T16:58:15.842Z,100.00
2023-03-06T17:00:44.563Z,100.00
2023-03-06T17:03:12.975Z,100.00
2023-03-06T17:05:44.178Z,100.00
2023-03-06T17:08:16.405Z,100.00
2023-03-06T17:10:50.124Z,100.00
2023-03-06T17:13:22.161Z,100.00
2023-03-06T17:16:48.100Z,100.00
2023-03-06T17:19:37.733Z,100.00
2023-03-06T17:22:16.009Z,100.00
2023-03-06T17:24:44.574Z,100.00
2023-03-06T17:30:02.552Z,100.00
2023-03-06T17:32:34.107Z,100.00
2023-03-06T17:35:03.131Z,100.00
2023-03-06T17:37:34.087Z,100.00
2023-03-06T17:40:02.796Z,100.00
2023-03-06T17:42:33.457Z,100.00
2023-03-06T17:45:02.217Z,100.00
2023-03-06T17:47:30.820Z,100.00
2023-03-06T17:49:59.310Z,100.00
2023-03-06T17:52:31.402Z,100.00
2023-03-06T17:55:01.603Z,100.00
2023-03-06T17:57:43.477Z,100.00
2023-03-06T18:00:16.933Z,100.00
2023-03-06T18:02:45.487Z,100.00
2023-03-06T18:05:14.026Z,100.00
2023-03-06T18:07:44.901Z,100.00
2023-03-06T18:10:22.062Z,100.00
2023-03-06T18:12:50.633Z,100.00
2023-03-06T18:15:19.757Z,100.00
2023-03-06T18:17:48.424Z,100.00
2023-03-06T18:20:17.310Z,100.00
2023-03-06T18:22:45.684Z,100.00
2023-03-06T18:25:15.725Z,100.00
2023-03-06T18:27:44.598Z,100.00
2023-03-06T18:30:14.611Z,100.00
2023-03-06T18:32:43.184Z,100.00
2023-03-06T18:35:12.249Z,100.00
2023-03-06T18:37:40.769Z,100.00
2023-03-06T18:40:11.399Z,100.00
2023-03-06T18:42:41.624Z,100.00
2023-03-06T18:45:11.865Z,100.00
2023-03-06T18:47:40.607Z,100.00
2023-03-06T18:50:16.543Z,100.00
2023-03-06T18:52:45.763Z,100.00
2023-03-06T18:55:14.517Z,100.00
2023-03-06T18:57:44.437Z,100.00
2023-03-06T19:00:14.529Z,100.00
2023-03-06T19:02:43.825Z,100.00
2023-03-06T19:05:12.515Z,100.00
2023-03-06T19:07:41.613Z,100.00
2023-03-06T19:10:12.863Z,100.00
2023-03-06T19:12:41.537Z,100.00
2023-03-06T19:15:12.075Z,100.00
2023-03-06T19:17:40.652Z,100.00
2023-03-06T19:20:11.313Z,100.00
2023-03-06T19:22:40.117Z,100.00
2023-03-06T19:25:10.504Z,100.00
2023-03-06T19:27:39.486Z,100.00
2023-03-06T19:30:12.704Z,100.00
2023-03-06T19:32:41.826Z,100.00
2023-03-06T19:35:11.174Z,100.00
2023-03-06T19:37:39.994Z,100.00
2023-03-06T19:40:10.806Z,100.00
2023-03-06T19:42:47.239Z,100.00
2023-03-06T19:45:17.338Z,100.00
2023-03-06T19:47:47.333Z,100.00
2023-03-06T19:50:15.833Z,100.00
2023-03-06T19:52:44.711Z,100.00
2023-03-06T19:55:13.188Z,100.00
2023-03-06T19:57:41.867Z,100.00
2023-03-06T20:00:13.115Z,100.00
2023-03-06T20:02:43.014Z,100.00
2023-03-06T20:05:14.581Z,100.00
2023-03-06T20:07:43.102Z,100.00
2023-03-06T20:10:13.013Z,100.00
2023-03-06T20:12:41.753Z,100.00
2023-03-06T20:15:13.840Z,100.00
2023-03-06T20:17:43.747Z,100.00
2023-03-06T20:20:14.379Z,100.00
2023-03-06T20:22:43.097Z,100.00
2023-03-06T20:25:13.195Z,100.00
2023-03-06T20:27:41.657Z,100.00
2023-03-06T20:30:12.918Z,100.00
2023-03-06T20:32:41.680Z,100.00
2023-03-06T20:35:12.735Z,100.00
2023-03-06T20:37:41.424Z,100.00
2023-03-06T20:40:13.291Z,100.00
2023-03-06T20:42:41.799Z,100.00
2023-03-06T20:45:11.613Z,100.00
2023-03-06T20:47:47.520Z,100.00
2023-03-06T20:50:36.073Z,100.00
2023-03-06T20:53:23.216Z,100.00
2023-03-06T20:55:52.424Z,100.00
2023-03-06T20:58:23.569Z,100.00
2023-03-06T21:00:52.120Z,100.00
2023-03-06T21:03:20.903Z,100.00
2023-03-06T21:05:50.972Z,100.00
2023-03-06T21:08:19.561Z,100.00
2023-03-06T21:10:48.429Z,100.00
2023-03-06T21:13:17.304Z,100.00
2023-03-06T21:15:48.923Z,100.00
2023-03-06T21:18:18.144Z,100.00
2023-03-06T21:20:46.733Z,100.00
2023-03-06T21:23:16.768Z,100.00
2023-03-06T21:25:49.487Z,100.00
2023-03-06T21:28:19.341Z,100.00
2023-03-06T21:30:48.380Z,100.00
2023-03-06T21:33:16.954Z,100.00
2023-03-06T21:35:47.094Z,100.00
2023-03-06T21:38:16.953Z,100.00
2023-03-06T21:40:46.583Z,100.00
2023-03-06T21:43:15.746Z,100.00
2023-03-06T21:45:46.150Z,100.00
2023-03-06T21:48:15.899Z,100.00
2023-03-06T21:50:44.491Z,100.00
2023-03-06T21:53:12.921Z,100.00
2023-03-06T21:55:43.102Z,100.00
2023-03-06T21:58:11.485Z,100.00
2023-03-06T22:00:40.710Z,100.00
2023-03-06T22:03:09.333Z,100.00
2023-03-06T22:05:37.779Z,100.00
2023-03-06T22:08:06.431Z,100.00
2023-03-06T22:10:35.086Z,100.00
2023-03-06T22:13:05.172Z,100.00
2023-03-06T22:15:36.288Z,100.00
2023-03-06T22:18:23.460Z,100.00
2023-03-06T22:21:12.454Z,100.00
2023-03-06T22:24:00.836Z,100.00
2023-03-06T22:26:48.449Z,100.00
2023-03-06T22:29:37.396Z,100.00
2023-03-06T22:32:24.699Z,100.00
2023-03-06T22:35:11.914Z,100.00
2023-03-06T22:38:02.704Z,100.00
2023-03-06T22:40:50.082Z,100.00
2023-03-06T22:43:38.202Z,100.00
2023-03-06T22:46:27.736Z,100.00
2023-03-06T22:49:17.839Z,100.00
2023-03-06T22:52:05.021Z,100.00
2023-03-06T22:54:52.330Z,100.00
2023-03-06T22:57:39.351Z,100.00
2023-03-06T23:00:11.079Z,100.00
2023-03-06T23:02:59.811Z,100.00
2023-03-06T23:05:47.128Z,100.00
2023-03-06T23:08:34.052Z,100.00
2023-03-06T23:11:02.532Z,100.00
2023-03-06T23:13:49.821Z,100.00
2023-03-06T23:16:37.841Z,100.00
2023-03-06T23:19:26.722Z,100.00
2023-03-06T23:22:14.422Z,100.00
2023-03-06T23:25:01.663Z,100.00
2023-03-06T23:27:48.762Z,100.00
2023-03-06T23:30:18.075Z,100.00
2023-03-06T23:32:46.527Z,100.00
2023-03-06T23:35:16.597Z,100.00
2023-03-06T23:37:45.071Z,100.00
2023-03-06T23:40:17.517Z,100.00
2023-03-06T23:42:47.862Z,100.00
2023-03-06T23:45:16.782Z,100.00
2023-03-06T23:47:46.453Z,100.00
2023-03-06T23:50:16.787Z,100.00
2023-03-06T23:52:45.713Z,100.00
2023-03-06T23:55:14.445Z,100.00
2023-03-06T23:57:43.171Z,100.00
